Share

Laemchabang, Thailand

Pattaya (ICHONBUR6) Elev 141 ft | 12.93 °N, 100.91 °E | Change Station

Current weather conditions updated 3 minutes ago

Mostly Cloudy
Mostly Cloudy
92.1 °F
Feels Like 107 °F
N
1.0
Wind Variable Wind from SSE
Gusts 9.0 mph
Sunrise 6:01 AM
Sunset 6:29 PM
Moon Waning Gibbous

Tomorrow is forecast to be nearly the same temperature as today.

Pressure 29.71 in
Visibility 6.2 miles
Clouds Few 3000 ft
Mostly Cloudy 30000 ft
Heat Index 107 °F
Dew Point 78 °F
Humidity 63%
Rainfall 0.00 in
Snow Depth Not available.
UV 3 out of 16
Pollen Not available.
Air Quality Not available.
Flu Activity Not available.
METAR VTBS 200900Z 18014KT 9999 FEW030 BKN300 34/22 Q1006 NOSIG

More Conditions Fewer Conditions

Pressure 29.71 in
Visibility 6.2 miles
Clouds Few 3000 ft
Mostly Cloudy 30000 ft
Heat Index 107 °F
Dew Point 78 °F
Humidity 63%
Rainfall 0.00 in
Snow Depth Not available.
UV 3 out of 16
Pollen Not available.
Air Quality Not available.
Flu Activity Not available.
METAR VTBS 200900Z 18014KT 9999 FEW030 BKN300 34/22 Q1006 NOSIG

More Conditions Fewer Conditions

10-Day Weather Forecast

Almanac

Astronomy

Apr. 20, 2014 Rise Set
Actual Time 6:01 AM ICT 6:29 PM ICT
Civil Twilight 5:39 AM ICT 6:51 PM ICT
Nautical Twilight 5:14 AM ICT 7:16 PM ICT
Astronomical Twilight 4:48 AM ICT 7:42 PM ICT
Moon 11:16 PM ICT 10:09 AM ICT
Length of Visible Light 13h 12m
Length of Day
12h 28m
Tomorrow will be 0m 41s longer.
Waning Gibbous, 72% of the Moon is Illuminated
Today
Waning Gibbous
Apr 22
Last Quarter
Apr 29
New
May 6
First Quarter
May 14
Full

Yesterday's Extremes

Country Highs Country Lows

Community

  • Sunny day at the coast-Cape Arago Lighthouse
    Sunny day at the coast-Cape Arago Lighthouse
  • Cherry Blossoms
    Cherry Blossoms
  • White-Crowned Sparrow
    White-Crowned Sparrow
  • New Day
    New Day
  • Happy Easter!
    Happy Easter!

WunderPhotos

Upload Photos

1,703,122 photos uploaded!

WunderBlogs® & News

Nearby

Snow Depth

Not available.

Coastal Water Temperatures

Place Temperature
No Stations Reporting

Earthquake Activity

City Distance Mag. Time & Date
No recent earthquake activity has been reported nearby.
Minimum magnitude displayed is 2.5.

Nearby Weather Stations

Station Location Temp. Heat Index Dew Point Humidity Wind Precip. Elev Updated Type
Pattaya, Pattaya 92.1 °F 107 °F 78 °F 63% SSE  at  1.0 mph 0.00 in / hr 141 ft 4:05 PM ICT Normal

Show More Stations Show Fewer Stations

What do you think?

We're not finished. Please let us know what you like, what you don't like, and what you are still missing.